sensor_id;sensor_type;location;lat;lon;timestamp;P1;durP1;ratioP1;P2;durP2;ratioP2
36989;SDS011;22898;52.102;5.776;2023-08-08T00:02:12;3.42;;;1.60;;
36989;SDS011;22898;52.102;5.776;2023-08-08T00:04:38;1.05;;;0.73;;
36989;SDS011;22898;52.102;5.776;2023-08-08T00:07:03;1.27;;;1.17;;
36989;SDS011;22898;52.102;5.776;2023-08-08T00:09:29;1.27;;;1.02;;
36989;SDS011;22898;52.102;5.776;2023-08-08T00:11:55;1.63;;;1.25;;
36989;SDS011;22898;52.102;5.776;2023-08-08T00:14:22;1.70;;;0.95;;
36989;SDS011;22898;52.102;5.776;2023-08-08T00:16:48;9.23;;;1.63;;
36989;SDS011;22898;52.102;5.776;2023-08-08T00:19:14;2.97;;;1.20;;
36989;SDS011;22898;52.102;5.776;2023-08-08T00:21:40;2.80;;;1.23;;
36989;SDS011;22898;52.102;5.776;2023-08-08T00:24:05;1.17;;;1.02;;
36989;SDS011;22898;52.102;5.776;2023-08-08T00:26:31;3.63;;;1.23;;
36989;SDS011;22898;52.102;5.776;2023-08-08T00:28:56;3.05;;;2.33;;
36989;SDS011;22898;52.102;5.776;2023-08-08T00:31:22;1.77;;;1.20;;
36989;SDS011;22898;52.102;5.776;2023-08-08T00:33:47;1.27;;;1.02;;
36989;SDS011;22898;52.102;5.776;2023-08-08T00:36:13;1.52;;;1.20;;
36989;SDS011;22898;52.102;5.776;2023-08-08T00:38:39;4.38;;;1.65;;
36989;SDS011;22898;52.102;5.776;2023-08-08T00:41:04;1.90;;;1.20;;
36989;SDS011;22898;52.102;5.776;2023-08-08T00:43:30;2.60;;;1.23;;
36989;SDS011;22898;52.102;5.776;2023-08-08T00:45:55;1.40;;;0.90;;
36989;SDS011;22898;52.102;5.776;2023-08-08T00:48:22;1.83;;;1.27;;
36989;SDS011;22898;52.102;5.776;2023-08-08T00:50:48;4.13;;;1.40;;
36989;SDS011;22898;52.102;5.776;2023-08-08T00:53:14;1.05;;;0.80;;
36989;SDS011;22898;52.102;5.776;2023-08-08T00:55:40;0.95;;;0.82;;
36989;SDS011;22898;52.102;5.776;2023-08-08T00:58:06;1.30;;;1.20;;
36989;SDS011;22898;52.102;5.776;2023-08-08T01:00:32;2.15;;;1.00;;
36989;SDS011;22898;52.102;5.776;2023-08-08T01:02:57;1.08;;;0.98;;
36989;SDS011;22898;52.102;5.776;2023-08-08T01:05:23;1.95;;;1.10;;
36989;SDS011;22898;52.102;5.776;2023-08-08T01:10:29;6.15;;;1.67;;
36989;SDS011;22898;52.102;5.776;2023-08-08T01:13:00;1.45;;;0.77;;
36989;SDS011;22898;52.102;5.776;2023-08-08T01:15:30;2.70;;;1.30;;
36989;SDS011;22898;52.102;5.776;2023-08-08T01:18:01;1.30;;;1.15;;
36989;SDS011;22898;52.102;5.776;2023-08-08T01:20:29;1.80;;;1.25;;
36989;SDS011;22898;52.102;5.776;2023-08-08T01:23:12;1.90;;;1.08;;
36989;SDS011;22898;52.102;5.776;2023-08-08T01:25:44;1.80;;;1.38;;
36989;SDS011;22898;52.102;5.776;2023-08-08T01:28:12;1.02;;;0.93;;
36989;SDS011;22898;52.102;5.776;2023-08-08T01:30:37;2.97;;;1.17;;
36989;SDS011;22898;52.102;5.776;2023-08-08T01:33:03;3.13;;;1.75;;
36989;SDS011;22898;52.102;5.776;2023-08-08T01:35:30;2.70;;;0.88;;
36989;SDS011;22898;52.102;5.776;2023-08-08T01:38:10;1.10;;;0.93;;
36989;SDS011;22898;52.102;5.776;2023-08-08T01:40:42;3.10;;;1.50;;
36989;SDS011;22898;52.102;5.776;2023-08-08T01:43:09;3.53;;;1.48;;
36989;SDS011;22898;52.102;5.776;2023-08-08T01:45:35;0.95;;;0.80;;
36989;SDS011;22898;52.102;5.776;2023-08-08T01:48:06;1.80;;;1.10;;
36989;SDS011;22898;52.102;5.776;2023-08-08T01:50:32;2.20;;;0.77;;
36989;SDS011;22898;52.102;5.776;2023-08-08T01:52:58;1.17;;;1.05;;
36989;SDS011;22898;52.102;5.776;2023-08-08T01:55:23;2.35;;;1.83;;
36989;SDS011;22898;52.102;5.776;2023-08-08T01:57:49;1.10;;;0.98;;
36989;SDS011;22898;52.102;5.776;2023-08-08T02:00:14;1.30;;;1.10;;
36989;SDS011;22898;52.102;5.776;2023-08-08T02:02:40;1.60;;;1.17;;
36989;SDS011;22898;52.102;5.776;2023-08-08T02:05:06;1.10;;;0.95;;
36989;SDS011;22898;52.102;5.776;2023-08-08T02:07:31;2.85;;;1.27;;
36989;SDS011;22898;52.102;5.776;2023-08-08T02:09:57;1.92;;;1.52;;
36989;SDS011;22898;52.102;5.776;2023-08-08T02:12:22;10.40;;;1.33;;
36989;SDS011;22898;52.102;5.776;2023-08-08T02:14:48;3.45;;;0.88;;
36989;SDS011;22898;52.102;5.776;2023-08-08T02:17:14;1.80;;;1.20;;
36989;SDS011;22898;52.102;5.776;2023-08-08T02:19:39;5.15;;;1.55;;
36989;SDS011;22898;52.102;5.776;2023-08-08T02:22:05;0.60;;;0.60;;
36989;SDS011;22898;52.102;5.776;2023-08-08T02:24:30;0.88;;;0.85;;
36989;SDS011;22898;52.102;5.776;2023-08-08T02:26:56;1.23;;;0.73;;
36989;SDS011;22898;52.102;5.776;2023-08-08T02:29:22;1.67;;;1.23;;
36989;SDS011;22898;52.102;5.776;2023-08-08T02:31:47;2.53;;;1.58;;
36989;SDS011;22898;52.102;5.776;2023-08-08T02:34:13;2.47;;;1.00;;
36989;SDS011;22898;52.102;5.776;2023-08-08T02:36:38;1.80;;;1.48;;
36989;SDS011;22898;52.102;5.776;2023-08-08T02:39:04;5.00;;;1.15;;
36989;SDS011;22898;52.102;5.776;2023-08-08T02:41:29;0.75;;;0.70;;
36989;SDS011;22898;52.102;5.776;2023-08-08T02:43:55;1.02;;;0.93;;
36989;SDS011;22898;52.102;5.776;2023-08-08T02:46:21;1.65;;;0.95;;
36989;SDS011;22898;52.102;5.776;2023-08-08T02:48:46;3.13;;;1.35;;
36989;SDS011;22898;52.102;5.776;2023-08-08T02:51:12;1.75;;;1.55;;
36989;SDS011;22898;52.102;5.776;2023-08-08T02:53:37;1.27;;;1.17;;
36989;SDS011;22898;52.102;5.776;2023-08-08T02:56:03;1.45;;;1.15;;
36989;SDS011;22898;52.102;5.776;2023-08-08T02:58:28;2.30;;;1.00;;
36989;SDS011;22898;52.102;5.776;2023-08-08T03:00:54;6.15;;;1.30;;
36989;SDS011;22898;52.102;5.776;2023-08-08T03:03:19;7.75;;;1.77;;
36989;SDS011;22898;52.102;5.776;2023-08-08T03:05:45;2.97;;;1.23;;
36989;SDS011;22898;52.102;5.776;2023-08-08T03:08:11;1.27;;;1.05;;
36989;SDS011;22898;52.102;5.776;2023-08-08T03:10:37;2.75;;;0.85;;
36989;SDS011;22898;52.102;5.776;2023-08-08T03:13:02;3.97;;;1.48;;
36989;SDS011;22898;52.102;5.776;2023-08-08T03:15:28;4.47;;;1.30;;
36989;SDS011;22898;52.102;5.776;2023-08-08T03:17:54;2.15;;;1.60;;
36989;SDS011;22898;52.102;5.776;2023-08-08T03:20:20;3.55;;;1.80;;
36989;SDS011;22898;52.102;5.776;2023-08-08T03:22:46;3.08;;;1.40;;
36989;SDS011;22898;52.102;5.776;2023-08-08T03:25:11;3.75;;;1.88;;
36989;SDS011;22898;52.102;5.776;2023-08-08T03:27:37;3.50;;;1.80;;
36989;SDS011;22898;52.102;5.776;2023-08-08T03:30:03;6.03;;;2.53;;
36989;SDS011;22898;52.102;5.776;2023-08-08T03:32:29;2.58;;;1.88;;
36989;SDS011;22898;52.102;5.776;2023-08-08T03:34:54;4.57;;;1.42;;
36989;SDS011;22898;52.102;5.776;2023-08-08T03:37:20;2.17;;;1.38;;
36989;SDS011;22898;52.102;5.776;2023-08-08T03:39:46;3.10;;;1.20;;
36989;SDS011;22898;52.102;5.776;2023-08-08T03:42:11;1.20;;;1.02;;
36989;SDS011;22898;52.102;5.776;2023-08-08T03:44:37;2.08;;;1.45;;
36989;SDS011;22898;52.102;5.776;2023-08-08T03:47:03;3.20;;;1.60;;
36989;SDS011;22898;52.102;5.776;2023-08-08T03:49:28;2.55;;;1.27;;
36989;SDS011;22898;52.102;5.776;2023-08-08T03:51:54;6.32;;;1.48;;
36989;SDS011;22898;52.102;5.776;2023-08-08T03:54:19;2.90;;;1.80;;
36989;SDS011;22898;52.102;5.776;2023-08-08T03:56:45;1.25;;;1.05;;
36989;SDS011;22898;52.102;5.776;2023-08-08T03:59:11;3.00;;;1.90;;
36989;SDS011;22898;52.102;5.776;2023-08-08T04:01:36;3.45;;;1.27;;
36989;SDS011;22898;52.102;5.776;2023-08-08T04:04:03;2.03;;;1.35;;
36989;SDS011;22898;52.102;5.776;2023-08-08T04:06:29;4.22;;;1.48;;
36989;SDS011;22898;52.102;5.776;2023-08-08T04:08:54;9.82;;;2.30;;
36989;SDS011;22898;52.102;5.776;2023-08-08T04:11:20;3.55;;;1.13;;
36989;SDS011;22898;52.102;5.776;2023-08-08T04:13:46;2.22;;;1.55;;
36989;SDS011;22898;52.102;5.776;2023-08-08T04:16:11;3.45;;;1.80;;
36989;SDS011;22898;52.102;5.776;2023-08-08T04:18:37;7.88;;;1.40;;
36989;SDS011;22898;52.102;5.776;2023-08-08T04:21:02;1.10;;;1.00;;
36989;SDS011;22898;52.102;5.776;2023-08-08T04:23:28;1.92;;;1.25;;
36989;SDS011;22898;52.102;5.776;2023-08-08T04:25:54;1.67;;;1.30;;
36989;SDS011;22898;52.102;5.776;2023-08-08T04:28:20;1.63;;;1.52;;
36989;SDS011;22898;52.102;5.776;2023-08-08T04:30:46;4.15;;;2.17;;
36989;SDS011;22898;52.102;5.776;2023-08-08T04:33:11;2.13;;;1.60;;
36989;SDS011;22898;52.102;5.776;2023-08-08T04:35:37;1.85;;;1.13;;
36989;SDS011;22898;52.102;5.776;2023-08-08T04:38:03;2.33;;;1.65;;
36989;SDS011;22898;52.102;5.776;2023-08-08T04:40:29;5.43;;;1.73;;
36989;SDS011;22898;52.102;5.776;2023-08-08T04:42:54;5.78;;;1.45;;
36989;SDS011;22898;52.102;5.776;2023-08-08T04:45:20;4.03;;;1.27;;
36989;SDS011;22898;52.102;5.776;2023-08-08T04:47:46;2.85;;;1.85;;
36989;SDS011;22898;52.102;5.776;2023-08-08T04:50:12;9.38;;;2.72;;
36989;SDS011;22898;52.102;5.776;2023-08-08T04:52:37;4.10;;;1.75;;
36989;SDS011;22898;52.102;5.776;2023-08-08T04:55:03;4.82;;;1.48;;
36989;SDS011;22898;52.102;5.776;2023-08-08T04:57:29;1.88;;;1.13;;
36989;SDS011;22898;52.102;5.776;2023-08-08T04:59:54;7.10;;;2.88;;
36989;SDS011;22898;52.102;5.776;2023-08-08T05:02:20;4.00;;;2.38;;
36989;SDS011;22898;52.102;5.776;2023-08-08T05:04:45;2.33;;;1.80;;
36989;SDS011;22898;52.102;5.776;2023-08-08T05:07:11;2.80;;;1.48;;
36989;SDS011;22898;52.102;5.776;2023-08-08T05:09:37;3.05;;;2.17;;
36989;SDS011;22898;52.102;5.776;2023-08-08T05:12:02;5.53;;;2.17;;
36989;SDS011;22898;52.102;5.776;2023-08-08T05:14:28;1.77;;;1.40;;
36989;SDS011;22898;52.102;5.776;2023-08-08T05:16:54;6.00;;;2.67;;
36989;SDS011;22898;52.102;5.776;2023-08-08T05:19:19;7.95;;;1.92;;
36989;SDS011;22898;52.102;5.776;2023-08-08T05:21:45;1.55;;;1.30;;
36989;SDS011;22898;52.102;5.776;2023-08-08T05:24:11;4.38;;;2.35;;
36989;SDS011;22898;52.102;5.776;2023-08-08T05:26:36;1.75;;;1.45;;
36989;SDS011;22898;52.102;5.776;2023-08-08T05:29:02;8.73;;;2.10;;
36989;SDS011;22898;52.102;5.776;2023-08-08T05:31:27;4.55;;;2.45;;
36989;SDS011;22898;52.102;5.776;2023-08-08T05:33:53;7.38;;;2.42;;
36989;SDS011;22898;52.102;5.776;2023-08-08T05:36:18;4.32;;;1.58;;
36989;SDS011;22898;52.102;5.776;2023-08-08T05:38:44;3.15;;;1.75;;
36989;SDS011;22898;52.102;5.776;2023-08-08T05:41:10;2.03;;;1.27;;
36989;SDS011;22898;52.102;5.776;2023-08-08T05:43:35;3.10;;;1.48;;
36989;SDS011;22898;52.102;5.776;2023-08-08T05:46:01;1.88;;;1.27;;
36989;SDS011;22898;52.102;5.776;2023-08-08T05:48:27;9.88;;;1.65;;
36989;SDS011;22898;52.102;5.776;2023-08-08T05:50:52;5.93;;;1.42;;
36989;SDS011;22898;52.102;5.776;2023-08-08T05:53:18;5.78;;;1.45;;
36989;SDS011;22898;52.102;5.776;2023-08-08T05:55:44;2.90;;;1.83;;
36989;SDS011;22898;52.102;5.776;2023-08-08T05:58:09;2.80;;;1.70;;
36989;SDS011;22898;52.102;5.776;2023-08-08T06:00:35;5.55;;;1.30;;
36989;SDS011;22898;52.102;5.776;2023-08-08T06:03:01;1.50;;;1.40;;
36989;SDS011;22898;52.102;5.776;2023-08-08T06:05:26;2.42;;;1.35;;
36989;SDS011;22898;52.102;5.776;2023-08-08T06:07:53;4.13;;;1.15;;
36989;SDS011;22898;52.102;5.776;2023-08-08T06:10:20;2.20;;;1.20;;
36989;SDS011;22898;52.102;5.776;2023-08-08T06:12:46;3.00;;;1.40;;
36989;SDS011;22898;52.102;5.776;2023-08-08T06:15:11;1.63;;;1.15;;
36989;SDS011;22898;52.102;5.776;2023-08-08T06:17:37;1.15;;;0.95;;
36989;SDS011;22898;52.102;5.776;2023-08-08T06:20:03;3.33;;;1.73;;
36989;SDS011;22898;52.102;5.776;2023-08-08T06:22:29;2.05;;;1.20;;
36989;SDS011;22898;52.102;5.776;2023-08-08T06:24:55;2.17;;;1.42;;
36989;SDS011;22898;52.102;5.776;2023-08-08T06:27:20;3.72;;;2.03;;
36989;SDS011;22898;52.102;5.776;2023-08-08T06:29:46;2.13;;;1.42;;
36989;SDS011;22898;52.102;5.776;2023-08-08T06:32:11;1.45;;;0.85;;
36989;SDS011;22898;52.102;5.776;2023-08-08T06:34:37;4.78;;;1.27;;
36989;SDS011;22898;52.102;5.776;2023-08-08T06:37:03;1.73;;;1.33;;
36989;SDS011;22898;52.102;5.776;2023-08-08T06:39:28;2.22;;;1.08;;
36989;SDS011;22898;52.102;5.776;2023-08-08T06:41:54;4.38;;;1.15;;
36989;SDS011;22898;52.102;5.776;2023-08-08T06:44:20;8.77;;;1.30;;
36989;SDS011;22898;52.102;5.776;2023-08-08T06:46:46;1.92;;;1.15;;
36989;SDS011;22898;52.102;5.776;2023-08-08T06:49:12;1.52;;;1.15;;
36989;SDS011;22898;52.102;5.776;2023-08-08T06:51:37;1.80;;;1.30;;
36989;SDS011;22898;52.102;5.776;2023-08-08T06:54:03;1.30;;;0.90;;
36989;SDS011;22898;52.102;5.776;2023-08-08T06:56:28;1.25;;;1.10;;
36989;SDS011;22898;52.102;5.776;2023-08-08T06:58:54;5.97;;;1.33;;
36989;SDS011;22898;52.102;5.776;2023-08-08T07:01:20;1.25;;;0.75;;
36989;SDS011;22898;52.102;5.776;2023-08-08T07:03:46;0.63;;;0.60;;
36989;SDS011;22898;52.102;5.776;2023-08-08T07:06:16;0.93;;;0.88;;
36989;SDS011;22898;52.102;5.776;2023-08-08T07:08:42;1.67;;;1.38;;
36989;SDS011;22898;52.102;5.776;2023-08-08T07:11:08;0.47;;;0.47;;
36989;SDS011;22898;52.102;5.776;2023-08-08T07:13:33;1.10;;;0.90;;
36989;SDS011;22898;52.102;5.776;2023-08-08T07:15:59;2.03;;;0.73;;
36989;SDS011;22898;52.102;5.776;2023-08-08T07:18:25;0.73;;;0.70;;
36989;SDS011;22898;52.102;5.776;2023-08-08T07:20:50;0.50;;;0.50;;
36989;SDS011;22898;52.102;5.776;2023-08-08T07:23:16;0.80;;;0.77;;
36989;SDS011;22898;52.102;5.776;2023-08-08T07:25:42;0.40;;;0.40;;
36989;SDS011;22898;52.102;5.776;2023-08-08T07:28:08;0.50;;;0.50;;
36989;SDS011;22898;52.102;5.776;2023-08-08T07:30:33;0.60;;;0.60;;
36989;SDS011;22898;52.102;5.776;2023-08-08T07:32:59;2.42;;;1.20;;
36989;SDS011;22898;52.102;5.776;2023-08-08T07:35:25;0.50;;;0.50;;
36989;SDS011;22898;52.102;5.776;2023-08-08T07:37:51;0.82;;;0.63;;
36989;SDS011;22898;52.102;5.776;2023-08-08T07:40:17;0.40;;;0.40;;
36989;SDS011;22898;52.102;5.776;2023-08-08T07:42:44;3.00;;;0.70;;
36989;SDS011;22898;52.102;5.776;2023-08-08T07:45:11;2.78;;;1.10;;
36989;SDS011;22898;52.102;5.776;2023-08-08T07:47:36;0.50;;;0.50;;
36989;SDS011;22898;52.102;5.776;2023-08-08T07:50:02;1.10;;;0.63;;
36989;SDS011;22898;52.102;5.776;2023-08-08T07:52:28;1.42;;;0.88;;
36989;SDS011;22898;52.102;5.776;2023-08-08T07:54:53;3.60;;;1.40;;
36989;SDS011;22898;52.102;5.776;2023-08-08T07:57:19;0.75;;;0.55;;
36989;SDS011;22898;52.102;5.776;2023-08-08T07:59:45;2.13;;;1.00;;
36989;SDS011;22898;52.102;5.776;2023-08-08T08:02:11;0.35;;;0.35;;
36989;SDS011;22898;52.102;5.776;2023-08-08T08:04:36;3.42;;;0.60;;
36989;SDS011;22898;52.102;5.776;2023-08-08T08:07:02;0.40;;;0.40;;
36989;SDS011;22898;52.102;5.776;2023-08-08T08:09:28;1.55;;;0.82;;
36989;SDS011;22898;52.102;5.776;2023-08-08T08:11:54;0.30;;;0.30;;
36989;SDS011;22898;52.102;5.776;2023-08-08T08:14:20;0.28;;;0.28;;
36989;SDS011;22898;52.102;5.776;2023-08-08T08:16:46;0.40;;;0.40;;
36989;SDS011;22898;52.102;5.776;2023-08-08T08:19:13;0.52;;;0.45;;
36989;SDS011;22898;52.102;5.776;2023-08-08T08:21:38;0.55;;;0.40;;
36989;SDS011;22898;52.102;5.776;2023-08-08T08:24:04;0.45;;;0.45;;
36989;SDS011;22898;52.102;5.776;2023-08-08T08:26:30;0.30;;;0.30;;
36989;SDS011;22898;52.102;5.776;2023-08-08T08:28:56;0.40;;;0.40;;
36989;SDS011;22898;52.102;5.776;2023-08-08T08:31:22;5.50;;;1.10;;
36989;SDS011;22898;52.102;5.776;2023-08-08T08:33:48;1.88;;;0.52;;
36989;SDS011;22898;52.102;5.776;2023-08-08T08:36:13;2.47;;;0.93;;
36989;SDS011;22898;52.102;5.776;2023-08-08T08:38:39;0.60;;;0.60;;
36989;SDS011;22898;52.102;5.776;2023-08-08T08:41:04;0.35;;;0.35;;
36989;SDS011;22898;52.102;5.776;2023-08-08T08:43:30;0.88;;;0.30;;
36989;SDS011;22898;52.102;5.776;2023-08-08T08:45:56;0.32;;;0.32;;
36989;SDS011;22898;52.102;5.776;2023-08-08T08:48:25;0.38;;;0.38;;
36989;SDS011;22898;52.102;5.776;2023-08-08T08:50:51;0.38;;;0.38;;
36989;SDS011;22898;52.102;5.776;2023-08-08T08:53:17;0.45;;;0.45;;
36989;SDS011;22898;52.102;5.776;2023-08-08T08:55:42;0.30;;;0.30;;
36989;SDS011;22898;52.102;5.776;2023-08-08T08:58:09;0.80;;;0.40;;
36989;SDS011;22898;52.102;5.776;2023-08-08T09:00:35;1.23;;;0.52;;
36989;SDS011;22898;52.102;5.776;2023-08-08T09:03:01;0.50;;;0.30;;
36989;SDS011;22898;52.102;5.776;2023-08-08T09:05:28;0.40;;;0.40;;
36989;SDS011;22898;52.102;5.776;2023-08-08T09:07:54;0.60;;;0.60;;
36989;SDS011;22898;52.102;5.776;2023-08-08T09:10:20;0.77;;;0.60;;
36989;SDS011;22898;52.102;5.776;2023-08-08T09:12:46;1.55;;;0.50;;
36989;SDS011;22898;52.102;5.776;2023-08-08T09:15:12;0.20;;;0.20;;
36989;SDS011;22898;52.102;5.776;2023-08-08T09:17:41;0.50;;;0.50;;
36989;SDS011;22898;52.102;5.776;2023-08-08T09:20:08;12.80;;;1.30;;
36989;SDS011;22898;52.102;5.776;2023-08-08T09:22:36;0.50;;;0.50;;
36989;SDS011;22898;52.102;5.776;2023-08-08T09:25:02;0.32;;;0.32;;
36989;SDS011;22898;52.102;5.776;2023-08-08T09:27:29;1.13;;;0.98;;
36989;SDS011;22898;52.102;5.776;2023-08-08T09:29:54;0.30;;;0.30;;
36989;SDS011;22898;52.102;5.776;2023-08-08T09:32:20;0.45;;;0.45;;
36989;SDS011;22898;52.102;5.776;2023-08-08T09:34:46;0.73;;;0.40;;
36989;SDS011;22898;52.102;5.776;2023-08-08T09:37:12;0.30;;;0.30;;
36989;SDS011;22898;52.102;5.776;2023-08-08T09:39:39;0.40;;;0.40;;
36989;SDS011;22898;52.102;5.776;2023-08-08T09:42:05;0.73;;;0.65;;
36989;SDS011;22898;52.102;5.776;2023-08-08T09:44:33;1.90;;;0.57;;
36989;SDS011;22898;52.102;5.776;2023-08-08T09:47:00;0.50;;;0.50;;
36989;SDS011;22898;52.102;5.776;2023-08-08T09:49:26;0.40;;;0.40;;
36989;SDS011;22898;52.102;5.776;2023-08-08T09:51:52;0.30;;;0.30;;
36989;SDS011;22898;52.102;5.776;2023-08-08T09:54:17;1.75;;;0.40;;
36989;SDS011;22898;52.102;5.776;2023-08-08T09:56:44;0.30;;;0.30;;
36989;SDS011;22898;52.102;5.776;2023-08-08T09:59:11;0.60;;;0.50;;
36989;SDS011;22898;52.102;5.776;2023-08-08T10:01:38;0.40;;;0.40;;
36989;SDS011;22898;52.102;5.776;2023-08-08T10:04:06;0.40;;;0.30;;
36989;SDS011;22898;52.102;5.776;2023-08-08T10:06:32;0.38;;;0.38;;
36989;SDS011;22898;52.102;5.776;2023-08-08T10:08:58;0.30;;;0.30;;
36989;SDS011;22898;52.102;5.776;2023-08-08T10:11:25;5.80;;;0.70;;
36989;SDS011;22898;52.102;5.776;2023-08-08T10:13:52;0.90;;;0.43;;
36989;SDS011;22898;52.102;5.776;2023-08-08T10:16:18;1.65;;;0.30;;
36989;SDS011;22898;52.102;5.776;2023-08-08T10:18:45;1.85;;;0.60;;
36989;SDS011;22898;52.102;5.776;2023-08-08T10:21:20;0.40;;;0.40;;
36989;SDS011;22898;52.102;5.776;2023-08-08T10:23:47;1.17;;;0.65;;
36989;SDS011;22898;52.102;5.776;2023-08-08T10:26:18;0.30;;;0.30;;
36989;SDS011;22898;52.102;5.776;2023-08-08T10:28:57;0.43;;;0.43;;
36989;SDS011;22898;52.102;5.776;2023-08-08T10:31:23;1.48;;;0.40;;
36989;SDS011;22898;52.102;5.776;2023-08-08T10:33:49;1.67;;;0.45;;
36989;SDS011;22898;52.102;5.776;2023-08-08T10:36:15;0.52;;;0.52;;
36989;SDS011;22898;52.102;5.776;2023-08-08T10:38:47;0.40;;;0.40;;
36989;SDS011;22898;52.102;5.776;2023-08-08T10:41:18;0.40;;;0.40;;
36989;SDS011;22898;52.102;5.776;2023-08-08T10:43:48;0.57;;;0.50;;
36989;SDS011;22898;52.102;5.776;2023-08-08T10:46:22;0.70;;;0.70;;
36989;SDS011;22898;52.102;5.776;2023-08-08T10:48:53;0.45;;;0.45;;
36989;SDS011;22898;52.102;5.776;2023-08-08T10:51:21;0.30;;;0.30;;
36989;SDS011;22898;52.102;5.776;2023-08-08T10:53:50;0.98;;;0.57;;
36989;SDS011;22898;52.102;5.776;2023-08-08T10:56:17;0.35;;;0.35;;
36989;SDS011;22898;52.102;5.776;2023-08-08T10:58:47;0.35;;;0.35;;
36989;SDS011;22898;52.102;5.776;2023-08-08T11:01:13;0.30;;;0.30;;
36989;SDS011;22898;52.102;5.776;2023-08-08T11:03:40;0.40;;;0.40;;
36989;SDS011;22898;52.102;5.776;2023-08-08T11:06:06;0.50;;;0.50;;
36989;SDS011;22898;52.102;5.776;2023-08-08T11:08:33;0.38;;;0.38;;
36989;SDS011;22898;52.102;5.776;2023-08-08T11:11:00;0.32;;;0.32;;
36989;SDS011;22898;52.102;5.776;2023-08-08T11:13:25;0.40;;;0.40;;
36989;SDS011;22898;52.102;5.776;2023-08-08T11:15:51;0.47;;;0.47;;
36989;SDS011;22898;52.102;5.776;2023-08-08T11:18:17;0.32;;;0.32;;
36989;SDS011;22898;52.102;5.776;2023-08-08T11:20:43;0.40;;;0.40;;
36989;SDS011;22898;52.102;5.776;2023-08-08T11:23:09;0.40;;;0.40;;
36989;SDS011;22898;52.102;5.776;2023-08-08T11:25:39;1.08;;;0.55;;
36989;SDS011;22898;52.102;5.776;2023-08-08T11:28:08;0.30;;;0.30;;
36989;SDS011;22898;52.102;5.776;2023-08-08T11:30:36;0.55;;;0.40;;
36989;SDS011;22898;52.102;5.776;2023-08-08T11:33:03;0.77;;;0.65;;
36989;SDS011;22898;52.102;5.776;2023-08-08T11:35:29;0.55;;;0.40;;
36989;SDS011;22898;52.102;5.776;2023-08-08T11:37:56;0.25;;;0.25;;
36989;SDS011;22898;52.102;5.776;2023-08-08T11:40:23;0.40;;;0.40;;
36989;SDS011;22898;52.102;5.776;2023-08-08T11:42:51;1.05;;;0.52;;
36989;SDS011;22898;52.102;5.776;2023-08-08T11:45:17;0.75;;;0.63;;
36989;SDS011;22898;52.102;5.776;2023-08-08T11:47:43;0.32;;;0.32;;
36989;SDS011;22898;52.102;5.776;2023-08-08T11:50:13;0.45;;;0.45;;
36989;SDS011;22898;52.102;5.776;2023-08-08T11:52:40;0.73;;;0.70;;
36989;SDS011;22898;52.102;5.776;2023-08-08T11:55:07;0.47;;;0.47;;
36989;SDS011;22898;52.102;5.776;2023-08-08T11:57:36;0.30;;;0.30;;
36989;SDS011;22898;52.102;5.776;2023-08-08T12:00:06;0.60;;;0.47;;
36989;SDS011;22898;52.102;5.776;2023-08-08T12:02:33;0.50;;;0.50;;
36989;SDS011;22898;52.102;5.776;2023-08-08T12:05:06;1.85;;;0.68;;
36989;SDS011;22898;52.102;5.776;2023-08-08T12:07:33;0.97;;;0.67;;
36989;SDS011;22898;52.102;5.776;2023-08-08T12:09:59;0.52;;;0.52;;
36989;SDS011;22898;52.102;5.776;2023-08-08T12:12:25;2.95;;;0.73;;
36989;SDS011;22898;52.102;5.776;2023-08-08T12:14:53;0.85;;;0.50;;
36989;SDS011;22898;52.102;5.776;2023-08-08T12:17:20;0.50;;;0.50;;
36989;SDS011;22898;52.102;5.776;2023-08-08T12:19:47;0.50;;;0.50;;
36989;SDS011;22898;52.102;5.776;2023-08-08T12:22:13;0.50;;;0.45;;
36989;SDS011;22898;52.102;5.776;2023-08-08T12:24:39;1.25;;;0.68;;
36989;SDS011;22898;52.102;5.776;2023-08-08T12:27:05;1.25;;;0.40;;
36989;SDS011;22898;52.102;5.776;2023-08-08T12:29:30;3.72;;;0.93;;
36989;SDS011;22898;52.102;5.776;2023-08-08T12:31:56;2.35;;;0.50;;
36989;SDS011;22898;52.102;5.776;2023-08-08T12:34:22;0.40;;;0.40;;
36989;SDS011;22898;52.102;5.776;2023-08-08T12:36:47;1.40;;;0.63;;
36989;SDS011;22898;52.102;5.776;2023-08-08T12:39:13;0.40;;;0.40;;
36989;SDS011;22898;52.102;5.776;2023-08-08T12:41:38;0.50;;;0.50;;
36989;SDS011;22898;52.102;5.776;2023-08-08T12:44:04;0.30;;;0.30;;
36989;SDS011;22898;52.102;5.776;2023-08-08T12:46:30;0.88;;;0.47;;
36989;SDS011;22898;52.102;5.776;2023-08-08T12:48:56;0.90;;;0.57;;
36989;SDS011;22898;52.102;5.776;2023-08-08T12:51:22;3.88;;;0.60;;
36989;SDS011;22898;52.102;5.776;2023-08-08T12:53:48;6.97;;;0.65;;
36989;SDS011;22898;52.102;5.776;2023-08-08T12:56:15;0.50;;;0.50;;
36989;SDS011;22898;52.102;5.776;2023-08-08T12:58:40;0.70;;;0.70;;
36989;SDS011;22898;52.102;5.776;2023-08-08T13:01:06;0.50;;;0.50;;
36989;SDS011;22898;52.102;5.776;2023-08-08T13:03:32;0.88;;;0.70;;
36989;SDS011;22898;52.102;5.776;2023-08-08T13:05:59;0.30;;;0.30;;
36989;SDS011;22898;52.102;5.776;2023-08-08T13:08:25;0.40;;;0.40;;
36989;SDS011;22898;52.102;5.776;2023-08-08T13:10:50;5.15;;;0.82;;
36989;SDS011;22898;52.102;5.776;2023-08-08T13:13:18;0.50;;;0.50;;
36989;SDS011;22898;52.102;5.776;2023-08-08T13:15:44;4.80;;;0.40;;
36989;SDS011;22898;52.102;5.776;2023-08-08T13:18:12;0.40;;;0.40;;
36989;SDS011;22898;52.102;5.776;2023-08-08T13:20:37;1.65;;;1.27;;
36989;SDS011;22898;52.102;5.776;2023-08-08T13:23:03;4.63;;;0.43;;
36989;SDS011;22898;52.102;5.776;2023-08-08T13:25:29;0.40;;;0.40;;
36989;SDS011;22898;52.102;5.776;2023-08-08T13:27:56;0.50;;;0.50;;
36989;SDS011;22898;52.102;5.776;2023-08-08T13:30:21;0.40;;;0.40;;
36989;SDS011;22898;52.102;5.776;2023-08-08T13:32:47;1.00;;;0.55;;
36989;SDS011;22898;52.102;5.776;2023-08-08T13:35:13;1.17;;;0.68;;
36989;SDS011;22898;52.102;5.776;2023-08-08T13:37:39;0.70;;;0.65;;
36989;SDS011;22898;52.102;5.776;2023-08-08T13:40:04;1.17;;;0.70;;
36989;SDS011;22898;52.102;5.776;2023-08-08T13:42:31;0.50;;;0.50;;
36989;SDS011;22898;52.102;5.776;2023-08-08T13:44:56;0.30;;;0.30;;
36989;SDS011;22898;52.102;5.776;2023-08-08T13:47:22;0.40;;;0.40;;
36989;SDS011;22898;52.102;5.776;2023-08-08T13:49:47;0.65;;;0.43;;
36989;SDS011;22898;52.102;5.776;2023-08-08T13:52:13;1.65;;;0.50;;
36989;SDS011;22898;52.102;5.776;2023-08-08T13:54:38;1.35;;;0.40;;
36989;SDS011;22898;52.102;5.776;2023-08-08T13:57:04;3.83;;;1.55;;
36989;SDS011;22898;52.102;5.776;2023-08-08T13:59:30;0.30;;;0.30;;
36989;SDS011;22898;52.102;5.776;2023-08-08T14:01:55;2.25;;;0.70;;
36989;SDS011;22898;52.102;5.776;2023-08-08T14:04:21;0.43;;;0.40;;
36989;SDS011;22898;52.102;5.776;2023-08-08T14:06:46;0.50;;;0.50;;
36989;SDS011;22898;52.102;5.776;2023-08-08T14:09:12;0.47;;;0.47;;
36989;SDS011;22898;52.102;5.776;2023-08-08T14:11:37;0.50;;;0.50;;
36989;SDS011;22898;52.102;5.776;2023-08-08T14:14:03;0.30;;;0.30;;
36989;SDS011;22898;52.102;5.776;2023-08-08T14:16:29;0.55;;;0.55;;
36989;SDS011;22898;52.102;5.776;2023-08-08T14:18:54;1.85;;;0.45;;
36989;SDS011;22898;52.102;5.776;2023-08-08T14:21:20;0.57;;;0.57;;
36989;SDS011;22898;52.102;5.776;2023-08-08T14:23:45;4.50;;;0.80;;
36989;SDS011;22898;52.102;5.776;2023-08-08T14:26:12;1.02;;;0.65;;
36989;SDS011;22898;52.102;5.776;2023-08-08T14:28:37;0.40;;;0.40;;
36989;SDS011;22898;52.102;5.776;2023-08-08T14:31:03;0.63;;;0.40;;
36989;SDS011;22898;52.102;5.776;2023-08-08T14:33:31;0.60;;;0.60;;
36989;SDS011;22898;52.102;5.776;2023-08-08T14:35:57;0.60;;;0.60;;
36989;SDS011;22898;52.102;5.776;2023-08-08T14:38:23;0.73;;;0.70;;
36989;SDS011;22898;52.102;5.776;2023-08-08T14:40:49;0.43;;;0.43;;
36989;SDS011;22898;52.102;5.776;2023-08-08T14:43:15;0.73;;;0.65;;
36989;SDS011;22898;52.102;5.776;2023-08-08T14:45:41;0.40;;;0.40;;